createdAt,value
2017-08-19T00:01:12.777Z,12.10
2017-08-19T00:03:41.109Z,12.10
2017-08-19T00:06:09.429Z,12.10
2017-08-19T00:08:37.772Z,12.10
2017-08-19T00:11:06.087Z,12.10
2017-08-19T00:13:34.390Z,12.10
2017-08-19T00:16:02.736Z,12.10
2017-08-19T00:18:31.050Z,12.20
2017-08-19T00:20:59.396Z,12.20
2017-08-19T00:23:27.719Z,12.20
2017-08-19T00:25:56.056Z,12.30
2017-08-19T00:28:24.369Z,12.30
2017-08-19T00:30:52.705Z,12.30
2017-08-19T00:33:21.018Z,12.30
2017-08-19T00:35:49.332Z,12.30
2017-08-19T00:38:17.656Z,12.20
2017-08-19T00:40:45.205Z,12.20
2017-08-19T00:43:13.526Z,12.20
2017-08-19T00:45:41.830Z,12.20
2017-08-19T00:48:10.167Z,12.20
2017-08-19T00:50:38.478Z,12.20
2017-08-19T00:53:06.808Z,12.20
2017-08-19T00:55:35.131Z,12.20
2017-08-19T00:58:03.481Z,12.20
2017-08-19T01:00:31.792Z,12.10
2017-08-19T01:03:00.095Z,12.20
2017-08-19T01:05:28.432Z,12.20
2017-08-19T01:07:56.750Z,12.10
2017-08-19T01:10:25.091Z,12.10
2017-08-19T01:12:53.403Z,12.10
2017-08-19T01:15:21.735Z,12.00
2017-08-19T01:17:50.043Z,11.90
2017-08-19T01:20:18.384Z,11.90
2017-08-19T01:22:46.696Z,11.90
2017-08-19T01:25:26.903Z,11.90
2017-08-19T01:27:55.218Z,11.90
2017-08-19T01:30:23.536Z,11.90
2017-08-19T01:32:51.874Z,11.90
2017-08-19T01:35:20.189Z,11.90
2017-08-19T01:37:48.531Z,11.80
2017-08-19T01:40:16.851Z,11.80
2017-08-19T01:42:45.191Z,11.80
2017-08-19T01:45:13.555Z,11.80
2017-08-19T01:47:41.891Z,11.80
2017-08-19T01:50:10.211Z,11.80
2017-08-19T01:52:38.548Z,11.70
2017-08-19T01:55:06.860Z,11.70
2017-08-19T01:57:35.168Z,11.70
2017-08-19T02:00:03.505Z,11.70
2017-08-19T02:02:31.811Z,11.60
2017-08-19T02:05:00.136Z,11.60
2017-08-19T02:07:28.445Z,11.60
2017-08-19T02:09:56.783Z,11.50
2017-08-19T02:12:25.097Z,11.50
2017-08-19T02:14:53.443Z,11.50
2017-08-19T02:17:21.756Z,11.50
2017-08-19T02:19:50.104Z,11.50
2017-08-19T02:22:18.417Z,11.50
2017-08-19T02:24:46.732Z,11.60
2017-08-19T02:27:15.064Z,11.70
2017-08-19T02:29:43.370Z,11.80
2017-08-19T02:32:11.695Z,11.80
2017-08-19T02:34:40.007Z,11.90
2017-08-19T02:37:08.345Z,11.90
2017-08-19T02:39:36.659Z,12.00
2017-08-19T02:42:04.994Z,12.00
2017-08-19T02:44:33.308Z,12.00
2017-08-19T02:47:01.636Z,12.00
2017-08-19T02:49:29.960Z,12.00
2017-08-19T02:51:58.277Z,12.10
2017-08-19T02:54:26.639Z,12.10
2017-08-19T02:56:54.956Z,12.10
2017-08-19T02:59:23.297Z,12.10
2017-08-19T03:01:51.621Z,12.20
2017-08-19T03:04:19.952Z,12.20
2017-08-19T03:06:48.265Z,12.30
2017-08-19T03:09:16.602Z,12.30
2017-08-19T03:11:44.912Z,12.30
2017-08-19T03:14:12.477Z,12.30
2017-08-19T03:16:40.793Z,12.40
2017-08-19T03:19:09.133Z,12.50
2017-08-19T03:21:37.480Z,12.50
2017-08-19T03:24:05.792Z,12.50
2017-08-19T03:26:34.128Z,12.50
2017-08-19T03:29:02.440Z,12.50
2017-08-19T03:31:30.777Z,12.60
2017-08-19T03:33:59.094Z,12.60
2017-08-19T03:36:27.423Z,12.60
2017-08-19T03:38:55.744Z,12.60
2017-08-19T03:41:24.071Z,12.60
2017-08-19T03:43:52.383Z,12.60
2017-08-19T03:46:20.756Z,12.70
2017-08-19T03:48:49.077Z,12.70
2017-08-19T03:51:17.392Z,12.70
2017-08-19T03:53:45.736Z,12.70
2017-08-19T03:56:14.043Z,12.70
2017-08-19T03:58:42.376Z,12.70
2017-08-19T04:01:10.692Z,12.70
2017-08-19T04:03:39.088Z,12.70
2017-08-19T04:06:07.403Z,12.70
2017-08-19T04:08:35.728Z,12.70
2017-08-19T04:11:04.069Z,12.70
2017-08-19T04:13:32.477Z,12.70
2017-08-19T04:16:00.807Z,12.70
2017-08-19T04:18:29.133Z,12.70
2017-08-19T04:20:57.465Z,12.70
2017-08-19T04:23:25.787Z,12.60
2017-08-19T04:25:54.123Z,12.60
2017-08-19T04:28:22.444Z,12.60
2017-08-19T04:30:50.762Z,12.50
2017-08-19T04:33:19.096Z,12.40
2017-08-19T04:35:47.416Z,12.30
2017-08-19T04:38:15.784Z,12.20
2017-08-19T04:40:44.102Z,12.10
2017-08-19T04:43:12.441Z,12.10
2017-08-19T04:45:40.743Z,12.10
2017-08-19T04:48:09.085Z,12.00
2017-08-19T04:50:37.409Z,12.00
2017-08-19T04:53:05.755Z,12.00
2017-08-19T04:55:34.067Z,12.00
2017-08-19T04:58:02.372Z,12.10
2017-08-19T05:00:30.701Z,12.20
2017-08-19T05:02:59.020Z,12.40
2017-08-19T05:05:27.360Z,12.50
2017-08-19T05:07:55.676Z,12.60
2017-08-19T05:10:24.013Z,12.80
2017-08-19T05:12:52.330Z,12.90
2017-08-19T05:15:20.668Z,13.00
2017-08-19T05:17:48.979Z,13.10
2017-08-19T05:20:17.291Z,13.10
2017-08-19T05:22:45.625Z,13.10
2017-08-19T05:25:13.949Z,13.10
2017-08-19T05:27:42.279Z,13.10
2017-08-19T05:30:10.588Z,13.20
2017-08-19T05:32:38.914Z,13.20
2017-08-19T05:35:07.227Z,13.30
2017-08-19T05:37:35.577Z,13.30
2017-08-19T05:40:03.891Z,13.30
2017-08-19T05:42:32.203Z,13.30
2017-08-19T05:45:00.551Z,13.30
2017-08-19T05:47:28.865Z,13.30
2017-08-19T05:49:57.208Z,13.30
2017-08-19T05:52:25.523Z,13.30
2017-08-19T05:54:53.896Z,13.40
2017-08-19T05:57:22.203Z,13.50
2017-08-19T05:59:50.556Z,13.60
2017-08-19T06:02:18.869Z,13.70
2017-08-19T06:04:47.186Z,13.70
2017-08-19T06:07:15.517Z,13.70
2017-08-19T06:09:43.831Z,13.80
2017-08-19T06:12:12.167Z,13.80
2017-08-19T06:14:40.480Z,13.90
2017-08-19T06:17:08.821Z,13.90
2017-08-19T06:19:37.135Z,14.00
2017-08-19T06:22:05.471Z,14.10
2017-08-19T06:24:33.791Z,14.30
2017-08-19T06:27:02.113Z,14.40
2017-08-19T06:29:30.453Z,14.70
2017-08-19T06:31:58.778Z,14.90
2017-08-19T06:34:27.127Z,14.90
2017-08-19T06:36:55.436Z,14.80
2017-08-19T06:39:23.774Z,14.80
2017-08-19T06:41:52.085Z,14.80
2017-08-19T06:44:20.429Z,14.70
2017-08-19T06:46:48.740Z,14.70
2017-08-19T06:49:17.056Z,14.60
2017-08-19T06:51:45.389Z,14.60
2017-08-19T06:54:13.699Z,14.60
2017-08-19T06:56:42.029Z,14.50
2017-08-19T06:59:10.403Z,14.60
2017-08-19T07:01:38.749Z,14.90
2017-08-19T07:04:07.064Z,15.20
2017-08-19T07:06:35.407Z,15.30
2017-08-19T07:09:03.728Z,15.30
2017-08-19T07:11:32.051Z,15.40
2017-08-19T07:14:00.368Z,15.40
2017-08-19T07:16:28.703Z,15.50
2017-08-19T07:18:57.014Z,15.50
2017-08-19T07:21:25.341Z,15.60
2017-08-19T07:23:53.660Z,15.50
2017-08-19T07:26:22.011Z,15.50
2017-08-19T07:28:50.328Z,15.50
2017-08-19T07:31:18.652Z,15.60
2017-08-19T07:33:46.989Z,15.70
2017-08-19T07:36:15.303Z,15.80
2017-08-19T07:38:43.632Z,15.80
2017-08-19T07:41:11.941Z,15.90
2017-08-19T07:43:40.271Z,15.90
2017-08-19T07:46:08.580Z,15.90
2017-08-19T07:48:36.915Z,15.90
2017-08-19T07:51:05.232Z,15.90
2017-08-19T07:53:33.559Z,15.90
2017-08-19T07:56:01.871Z,15.90
2017-08-19T07:58:30.211Z,15.90
2017-08-19T08:00:58.520Z,16.00
2017-08-19T08:03:26.867Z,16.10
2017-08-19T08:05:55.181Z,16.00
2017-08-19T08:08:23.487Z,16.00
2017-08-19T08:10:51.815Z,16.00
2017-08-19T08:13:20.136Z,16.10
2017-08-19T08:15:48.469Z,16.20
2017-08-19T08:18:16.777Z,16.30
2017-08-19T08:20:45.103Z,16.50
2017-08-19T08:23:13.404Z,16.80
2017-08-19T08:25:41.733Z,16.90
2017-08-19T08:28:10.033Z,16.90
2017-08-19T08:30:38.351Z,16.70
2017-08-19T08:33:06.688Z,16.40
2017-08-19T08:35:34.999Z,16.40
2017-08-19T08:38:03.322Z,16.50
2017-08-19T08:40:31.634Z,16.60
2017-08-19T08:42:59.964Z,16.70
2017-08-19T08:45:28.274Z,16.90
2017-08-19T08:47:56.614Z,16.90
2017-08-19T08:50:24.917Z,16.80
2017-08-19T08:52:53.259Z,16.80
2017-08-19T08:55:21.571Z,16.90
2017-08-19T08:57:49.888Z,16.90
2017-08-19T09:00:18.228Z,16.90
2017-08-19T09:02:46.540Z,16.90
2017-08-19T09:05:14.874Z,16.90
2017-08-19T09:07:43.182Z,16.90
2017-08-19T09:10:11.511Z,16.90
2017-08-19T09:12:39.811Z,16.90
2017-08-19T09:15:08.151Z,17.10
2017-08-19T09:17:36.470Z,17.30
2017-08-19T09:20:04.772Z,17.70
2017-08-19T09:22:33.098Z,18.20
2017-08-19T09:25:01.414Z,18.50
2017-08-19T09:27:29.747Z,18.70
2017-08-19T09:29:57.290Z,18.70
2017-08-19T09:32:25.625Z,18.70
2017-08-19T09:34:53.933Z,18.50
2017-08-19T09:37:22.261Z,18.20
2017-08-19T09:39:50.571Z,17.90
2017-08-19T09:42:18.913Z,17.60
2017-08-19T09:44:47.225Z,17.30
2017-08-19T09:47:15.534Z,17.00
2017-08-19T09:49:43.863Z,16.80
2017-08-19T09:52:12.197Z,16.60
2017-08-19T09:54:40.522Z,16.50
2017-08-19T09:57:08.838Z,16.50
2017-08-19T09:59:37.165Z,16.60
2017-08-19T10:02:05.473Z,16.60
2017-08-19T10:04:33.851Z,16.60
2017-08-19T10:07:02.174Z,16.60
2017-08-19T10:09:49.282Z,16.60
2017-08-19T10:12:17.628Z,16.60
2017-08-19T10:14:45.960Z,16.80
2017-08-19T10:17:14.286Z,17.10
2017-08-19T10:19:42.623Z,17.40
2017-08-19T10:22:10.927Z,17.70
2017-08-19T10:24:39.252Z,17.80
2017-08-19T10:27:07.565Z,17.80
2017-08-19T10:29:35.984Z,18.00
2017-08-19T10:32:04.308Z,18.20
2017-08-19T10:34:32.615Z,18.10
2017-08-19T10:37:00.976Z,18.10
2017-08-19T10:39:29.275Z,18.20
2017-08-19T10:41:57.611Z,18.00
2017-08-19T10:44:25.913Z,17.80
2017-08-19T10:46:54.243Z,17.70
2017-08-19T10:49:22.555Z,17.60
2017-08-19T10:51:50.886Z,17.50
2017-08-19T10:54:19.183Z,17.40
2017-08-19T10:56:47.523Z,17.40
2017-08-19T10:59:15.849Z,17.50
2017-08-19T11:01:44.154Z,17.60
2017-08-19T11:04:12.495Z,17.70
2017-08-19T11:06:40.812Z,17.70
2017-08-19T11:09:09.147Z,17.70
2017-08-19T11:11:37.466Z,17.90
2017-08-19T11:14:05.807Z,18.30
2017-08-19T11:16:34.114Z,18.40
2017-08-19T11:19:02.446Z,18.50
2017-08-19T11:21:30.753Z,18.90
2017-08-19T11:23:59.100Z,19.30
2017-08-19T11:26:27.415Z,19.60
2017-08-19T11:28:55.724Z,19.80
2017-08-19T11:31:24.057Z,19.80
2017-08-19T11:33:52.363Z,19.70
2017-08-19T11:36:20.699Z,19.70
2017-08-19T11:38:49.019Z,19.80
2017-08-19T11:41:17.349Z,19.70
2017-08-19T11:43:45.651Z,19.50
2017-08-19T11:46:13.978Z,19.40
2017-08-19T11:48:42.299Z,19.40
2017-08-19T11:51:10.638Z,19.20
2017-08-19T11:53:38.955Z,19.00
2017-08-19T11:56:07.275Z,19.00
2017-08-19T11:58:35.607Z,18.90
2017-08-19T12:01:03.912Z,18.80
2017-08-19T12:03:32.240Z,18.70
2017-08-19T12:06:00.546Z,19.00
2017-08-19T12:08:28.883Z,19.50
2017-08-19T12:10:57.191Z,19.60
2017-08-19T12:13:25.520Z,19.60
2017-08-19T12:15:53.833Z,19.60
2017-08-19T12:18:22.140Z,19.70
2017-08-19T12:20:50.475Z,19.80
2017-08-19T12:23:18.792Z,20.00
2017-08-19T12:25:47.132Z,20.00
2017-08-19T12:28:15.434Z,19.80
2017-08-19T12:30:43.772Z,19.70
2017-08-19T12:33:12.075Z,19.50
2017-08-19T12:35:40.391Z,19.50
2017-08-19T12:38:08.727Z,19.30
2017-08-19T12:40:37.032Z,19.20
2017-08-19T12:43:05.357Z,19.60
2017-08-19T12:45:33.658Z,20.20
2017-08-19T12:48:01.993Z,20.50
2017-08-19T12:50:30.305Z,20.50
2017-08-19T12:52:58.619Z,20.70
2017-08-19T12:55:26.940Z,20.60
2017-08-19T12:57:55.252Z,20.50
2017-08-19T13:00:23.580Z,20.50
2017-08-19T13:02:51.903Z,20.80
2017-08-19T13:05:20.244Z,21.10
2017-08-19T13:07:48.561Z,21.20
2017-08-19T13:10:16.866Z,21.30
2017-08-19T13:12:45.243Z,21.60
2017-08-19T13:15:13.547Z,22.00
2017-08-19T13:17:41.891Z,22.30
2017-08-19T13:20:10.190Z,22.50
2017-08-19T13:22:38.536Z,22.50
2017-08-19T13:25:06.925Z,22.30
2017-08-19T13:27:35.227Z,22.20
2017-08-19T13:30:03.552Z,22.10
2017-08-19T13:32:31.855Z,22.00
2017-08-19T13:35:00.179Z,22.20
2017-08-19T13:37:28.486Z,21.90
2017-08-19T13:39:56.812Z,21.40
2017-08-19T13:42:25.146Z,21.00
2017-08-19T13:44:53.443Z,20.70
2017-08-19T13:47:21.775Z,20.50
2017-08-19T13:49:50.080Z,20.50
2017-08-19T13:52:18.406Z,20.50
2017-08-19T13:54:46.725Z,20.60
2017-08-19T13:57:15.048Z,20.80
2017-08-19T13:59:43.361Z,20.90
2017-08-19T14:02:11.716Z,21.00
2017-08-19T14:04:40.031Z,21.10
2017-08-19T14:07:08.335Z,21.10
2017-08-19T14:09:36.708Z,20.90
2017-08-19T14:12:05.029Z,20.80
2017-08-19T14:14:33.354Z,20.50
2017-08-19T14:17:01.670Z,20.50
2017-08-19T14:19:30.002Z,20.60
2017-08-19T14:21:58.309Z,20.70
2017-08-19T14:24:26.654Z,20.80
2017-08-19T14:26:54.961Z,20.90
2017-08-19T14:29:23.267Z,21.10
2017-08-19T14:31:51.607Z,21.20
2017-08-19T14:34:19.919Z,21.30
2017-08-19T14:36:48.255Z,21.30
2017-08-19T14:39:16.560Z,21.50
2017-08-19T14:41:44.932Z,21.70
2017-08-19T14:44:13.240Z,21.80
2017-08-19T14:46:41.559Z,21.90
2017-08-19T14:49:09.887Z,22.00
2017-08-19T14:51:38.196Z,22.30
2017-08-19T14:54:06.518Z,22.40
2017-08-19T14:56:34.821Z,22.30
2017-08-19T14:59:03.178Z,22.00
2017-08-19T15:01:31.514Z,22.00
2017-08-19T15:03:59.822Z,21.90
2017-08-19T15:06:28.153Z,21.70
2017-08-19T15:08:56.462Z,21.60
2017-08-19T15:11:24.795Z,21.60
2017-08-19T15:13:53.103Z,22.00
2017-08-19T15:16:21.436Z,22.60
2017-08-19T15:18:49.741Z,22.80
2017-08-19T15:21:18.046Z,22.90
2017-08-19T15:23:46.378Z,22.80
2017-08-19T15:26:14.683Z,22.50
2017-08-19T15:28:43.005Z,22.20
2017-08-19T15:31:11.332Z,22.20
2017-08-19T15:33:39.718Z,22.20
2017-08-19T15:36:08.033Z,22.30
2017-08-19T15:38:36.343Z,22.30
2017-08-19T15:41:04.682Z,22.30
2017-08-19T15:43:33.002Z,21.90
2017-08-19T15:46:01.419Z,21.60
2017-08-19T15:48:29.722Z,21.60
2017-08-19T15:50:58.050Z,21.60
2017-08-19T15:53:26.359Z,21.60
2017-08-19T15:55:54.663Z,21.70
2017-08-19T15:58:22.991Z,21.70
2017-08-19T16:00:51.299Z,21.50
2017-08-19T16:03:19.631Z,21.20
2017-08-19T16:05:47.936Z,21.10
2017-08-19T16:08:16.249Z,21.00
2017-08-19T16:10:44.592Z,21.00
2017-08-19T16:13:12.903Z,21.20
2017-08-19T16:15:41.241Z,21.10
2017-08-19T16:18:09.553Z,20.70
2017-08-19T16:20:37.919Z,20.40
2017-08-19T16:23:06.228Z,20.10
2017-08-19T16:25:34.536Z,19.90
2017-08-19T16:28:02.875Z,19.60
2017-08-19T16:30:31.179Z,19.30
2017-08-19T16:32:59.510Z,19.10
2017-08-19T16:35:27.834Z,18.80
2017-08-19T16:37:56.186Z,18.60
2017-08-19T16:40:24.496Z,18.50
2017-08-19T16:42:52.799Z,18.40
2017-08-19T16:45:21.131Z,18.30
2017-08-19T16:47:49.440Z,18.20
2017-08-19T16:50:17.769Z,18.10
2017-08-19T16:52:46.081Z,18.00
2017-08-19T16:55:15.173Z,17.80
2017-08-19T16:57:43.489Z,17.60
2017-08-19T17:00:11.808Z,17.50
2017-08-19T17:02:40.244Z,17.50
2017-08-19T17:05:08.559Z,17.40
2017-08-19T17:07:36.892Z,17.50
2017-08-19T17:10:05.199Z,18.00
2017-08-19T17:12:33.562Z,18.90
2017-08-19T17:15:01.880Z,20.10
2017-08-19T17:17:30.198Z,21.20
2017-08-19T17:19:58.530Z,22.30
2017-08-19T17:22:26.841Z,23.10
2017-08-19T17:24:55.220Z,23.60
2017-08-19T17:27:23.524Z,23.20
2017-08-19T17:29:51.879Z,22.20
2017-08-19T17:32:20.185Z,21.20
2017-08-19T17:34:48.498Z,20.30
2017-08-19T17:37:16.823Z,19.70
2017-08-19T17:39:45.127Z,19.50
2017-08-19T17:42:13.455Z,19.70
2017-08-19T17:44:41.755Z,20.50
2017-08-19T17:47:10.104Z,21.30
2017-08-19T17:49:38.404Z,22.10
2017-08-19T17:52:06.703Z,22.50
2017-08-19T17:54:35.023Z,22.00
2017-08-19T17:57:03.334Z,21.20
2017-08-19T17:59:31.663Z,20.30
2017-08-19T18:01:59.204Z,20.30
2017-08-19T18:04:27.547Z,18.90
2017-08-19T18:06:55.867Z,18.30
2017-08-19T18:09:24.183Z,17.90
2017-08-19T18:11:52.520Z,17.60
2017-08-19T18:14:20.836Z,17.30
2017-08-19T18:16:49.158Z,17.10
2017-08-19T18:19:17.455Z,17.00
2017-08-19T18:21:45.788Z,16.90
2017-08-19T18:24:14.095Z,16.70
2017-08-19T18:26:42.407Z,16.60
2017-08-19T18:29:10.739Z,16.50
2017-08-19T18:31:39.052Z,16.40
2017-08-19T18:34:07.401Z,16.30
2017-08-19T18:36:35.711Z,16.20
2017-08-19T18:39:04.023Z,16.10
2017-08-19T18:41:32.352Z,15.90
2017-08-19T18:44:00.684Z,15.80
2017-08-19T18:46:29.011Z,15.60
2017-08-19T18:48:57.360Z,15.50
2017-08-19T18:51:25.702Z,15.40
2017-08-19T18:53:53.267Z,15.30
2017-08-19T18:56:21.579Z,15.10
2017-08-19T18:58:49.916Z,15.00
2017-08-19T19:01:18.222Z,14.90
2017-08-19T19:03:46.550Z,14.80
2017-08-19T19:06:14.852Z,14.70
2017-08-19T19:08:43.228Z,14.50
2017-08-19T19:11:11.544Z,14.50
2017-08-19T19:13:39.903Z,14.30
2017-08-19T19:16:08.208Z,14.20
2017-08-19T19:18:36.526Z,14.10
2017-08-19T19:21:04.113Z,14.10
2017-08-19T19:23:31.664Z,14.00
2017-08-19T19:26:00.001Z,13.90
2017-08-19T19:28:28.315Z,13.80
2017-08-19T19:30:56.645Z,13.80
2017-08-19T19:33:24.959Z,13.70
2017-08-19T19:35:53.283Z,13.60
2017-08-19T19:38:21.640Z,13.60
2017-08-19T19:40:49.947Z,13.50
2017-08-19T19:43:18.283Z,13.50
2017-08-19T19:45:46.596Z,13.40
2017-08-19T19:48:14.943Z,13.40
2017-08-19T19:50:43.267Z,13.40
2017-08-19T19:53:11.600Z,13.30
2017-08-19T19:55:39.915Z,13.30
2017-08-19T19:58:08.261Z,13.30
2017-08-19T20:00:36.588Z,13.30
2017-08-19T20:03:04.899Z,13.30
2017-08-19T20:05:33.237Z,13.20
2017-08-19T20:08:01.553Z,13.20
2017-08-19T20:10:29.884Z,13.10
2017-08-19T20:12:58.196Z,13.00
2017-08-19T20:15:26.523Z,13.00
2017-08-19T20:17:54.864Z,12.90
2017-08-19T20:20:23.208Z,12.80
2017-08-19T20:22:51.520Z,12.80
2017-08-19T20:25:19.876Z,12.70
2017-08-19T20:27:48.208Z,12.70
2017-08-19T20:30:16.516Z,12.60
2017-08-19T20:32:44.855Z,12.60
2017-08-19T20:35:13.164Z,12.50
2017-08-19T20:37:41.496Z,12.50
2017-08-19T20:40:09.808Z,12.40
2017-08-19T20:42:38.168Z,12.40
2017-08-19T20:45:06.485Z,12.30
2017-08-19T20:47:34.803Z,12.30
2017-08-19T20:50:03.138Z,12.20
2017-08-19T20:52:31.452Z,12.20
2017-08-19T20:54:59.788Z,12.20
2017-08-19T20:57:28.104Z,12.10
2017-08-19T20:59:56.435Z,12.10
2017-08-19T21:02:24.754Z,12.10
2017-08-19T21:04:53.079Z,12.10
2017-08-19T21:07:21.423Z,12.00
2017-08-19T21:09:49.764Z,12.00
2017-08-19T21:12:18.078Z,11.90
2017-08-19T21:14:46.394Z,11.90
2017-08-19T21:17:14.739Z,11.90
2017-08-19T21:19:43.052Z,11.80
2017-08-19T21:22:11.379Z,11.80
2017-08-19T21:24:39.693Z,11.70
2017-08-19T21:27:08.027Z,11.70
2017-08-19T21:29:36.337Z,11.60
2017-08-19T21:32:04.701Z,11.60
2017-08-19T21:34:33.019Z,11.50
2017-08-19T21:37:01.337Z,11.50
2017-08-19T21:39:29.673Z,11.40
2017-08-19T21:41:58.024Z,11.40
2017-08-19T21:44:26.350Z,11.30
2017-08-19T21:46:54.657Z,11.30
2017-08-19T21:49:22.989Z,11.20
2017-08-19T21:51:51.307Z,11.30
2017-08-19T21:54:19.649Z,11.30
2017-08-19T21:56:47.959Z,11.30
2017-08-19T21:59:16.276Z,11.20
2017-08-19T22:01:44.617Z,11.20
2017-08-19T22:04:12.932Z,11.10
2017-08-19T22:06:41.264Z,11.10
2017-08-19T22:09:09.576Z,11.00
2017-08-19T22:11:37.916Z,11.00
2017-08-19T22:14:06.231Z,11.00
2017-08-19T22:16:34.598Z,11.00
2017-08-19T22:19:02.912Z,11.00
2017-08-19T22:21:31.252Z,10.90
2017-08-19T22:23:59.592Z,10.90
2017-08-19T22:26:27.904Z,10.90
2017-08-19T22:28:56.242Z,10.90
2017-08-19T22:31:24.551Z,10.90
2017-08-19T22:33:52.892Z,10.80
2017-08-19T22:36:21.200Z,10.80
2017-08-19T22:38:49.547Z,10.70
2017-08-19T22:41:17.852Z,10.80
2017-08-19T22:43:46.168Z,10.70
2017-08-19T22:46:14.499Z,10.60
2017-08-19T22:48:42.803Z,10.60
2017-08-19T22:51:11.169Z,10.60
2017-08-19T22:53:39.480Z,10.60
2017-08-19T22:56:07.811Z,10.50
2017-08-19T22:58:36.124Z,10.50
2017-08-19T23:01:04.483Z,10.50
2017-08-19T23:03:32.814Z,10.50
2017-08-19T23:06:01.127Z,10.40
2017-08-19T23:08:29.527Z,10.40
2017-08-19T23:10:57.839Z,10.40
2017-08-19T23:13:25.405Z,10.30
2017-08-19T23:15:53.712Z,10.30
2017-08-19T23:18:22.039Z,10.30
2017-08-19T23:20:50.349Z,10.20
2017-08-19T23:23:18.690Z,10.20
2017-08-19T23:25:47.000Z,10.20
2017-08-19T23:28:15.320Z,10.20
2017-08-19T23:30:43.661Z,10.20
2017-08-19T23:33:11.981Z,10.10
2017-08-19T23:35:40.324Z,10.10
2017-08-19T23:38:08.641Z,10.10
2017-08-19T23:40:36.976Z,10.10
2017-08-19T23:43:05.292Z,10.10
2017-08-19T23:45:33.614Z,10.10
2017-08-19T23:48:01.944Z,10.00
2017-08-19T23:50:30.278Z,10.00
2017-08-19T23:52:58.611Z,10.00
2017-08-19T23:55:26.922Z,10.00
2017-08-19T23:57:55.266Z,10.00
